sensor_id;sensor_type;location;lat;lon;timestamp;pressure;altitude;pressure_sealevel;temperature;humidity
62928;BME280;51070;52.236;-0.892;2023-12-22T00:01:28;100174.59;;;9.29;75.77
62928;BME280;51070;52.236;-0.892;2023-12-22T00:03:53;100169.60;;;9.30;75.70
62928;BME280;51070;52.236;-0.892;2023-12-22T00:06:18;100158.05;;;9.30;75.83
62928;BME280;51070;52.236;-0.892;2023-12-22T00:08:44;100152.16;;;9.29;75.69
62928;BME280;51070;52.236;-0.892;2023-12-22T00:11:09;100144.53;;;9.27;75.64
62928;BME280;51070;52.236;-0.892;2023-12-22T00:13:35;100140.80;;;9.23;75.74
62928;BME280;51070;52.236;-0.892;2023-12-22T00:16:00;100153.23;;;9.18;76.04
62928;BME280;51070;52.236;-0.892;2023-12-22T00:18:25;100160.52;;;9.14;75.99
62928;BME280;51070;52.236;-0.892;2023-12-22T00:20:51;100155.42;;;9.10;76.20
62928;BME280;51070;52.236;-0.892;2023-12-22T00:23:16;100157.36;;;9.06;76.58
62928;BME280;51070;52.236;-0.892;2023-12-22T00:25:41;100156.93;;;9.03;76.93
62928;BME280;51070;52.236;-0.892;2023-12-22T00:28:07;100158.63;;;9.02;77.23
62928;BME280;51070;52.236;-0.892;2023-12-22T00:30:32;100155.20;;;9.03;77.36
62928;BME280;51070;52.236;-0.892;2023-12-22T00:32:57;100152.34;;;9.05;77.58
62928;BME280;51070;52.236;-0.892;2023-12-22T00:35:23;100151.88;;;9.07;77.75
62928;BME280;51070;52.236;-0.892;2023-12-22T00:37:48;100146.76;;;9.09;77.99
62928;BME280;51070;52.236;-0.892;2023-12-22T00:40:13;100143.54;;;9.10;78.07
62928;BME280;51070;52.236;-0.892;2023-12-22T00:42:38;100143.08;;;9.12;78.24
62928;BME280;51070;52.236;-0.892;2023-12-22T00:45:04;100141.54;;;9.13;78.47
62928;BME280;51070;52.236;-0.892;2023-12-22T00:47:30;100150.20;;;9.14;78.70
62928;BME280;51070;52.236;-0.892;2023-12-22T00:49:55;100149.84;;;9.14;78.85
62928;BME280;51070;52.236;-0.892;2023-12-22T00:52:20;100147.60;;;9.14;79.34
62928;BME280;51070;52.236;-0.892;2023-12-22T00:54:45;100146.56;;;9.14;79.46
62928;BME280;51070;52.236;-0.892;2023-12-22T00:57:11;100141.02;;;9.13;79.63
62928;BME280;51070;52.236;-0.892;2023-12-22T00:59:37;100141.16;;;9.12;79.90
62928;BME280;51070;52.236;-0.892;2023-12-22T01:02:02;100141.64;;;9.10;80.05
62928;BME280;51070;52.236;-0.892;2023-12-22T01:04:28;100146.61;;;9.09;80.33
62928;BME280;51070;52.236;-0.892;2023-12-22T01:06:53;100140.89;;;9.09;80.94
62928;BME280;51070;52.236;-0.892;2023-12-22T01:09:18;100148.46;;;9.08;81.42
62928;BME280;51070;52.236;-0.892;2023-12-22T01:11:45;100157.30;;;9.10;82.12
62928;BME280;51070;52.236;-0.892;2023-12-22T01:14:10;100159.98;;;9.13;82.38
62928;BME280;51070;52.236;-0.892;2023-12-22T01:16:38;100158.19;;;9.17;82.67
62928;BME280;51070;52.236;-0.892;2023-12-22T01:19:04;100151.41;;;9.20;82.93
62928;BME280;51070;52.236;-0.892;2023-12-22T01:21:29;100158.25;;;9.25;83.28
62928;BME280;51070;52.236;-0.892;2023-12-22T01:23:54;100164.27;;;9.30;84.07
62928;BME280;51070;52.236;-0.892;2023-12-22T01:26:19;100159.08;;;9.36;84.35
62928;BME280;51070;52.236;-0.892;2023-12-22T01:28:45;100163.52;;;9.40;84.55
62928;BME280;51070;52.236;-0.892;2023-12-22T01:31:10;100156.00;;;9.43;85.35
62928;BME280;51070;52.236;-0.892;2023-12-22T01:33:35;100161.06;;;9.44;85.99
62928;BME280;51070;52.236;-0.892;2023-12-22T01:36:00;100157.62;;;9.46;86.36
62928;BME280;51070;52.236;-0.892;2023-12-22T01:38:26;100156.27;;;9.46;86.53
62928;BME280;51070;52.236;-0.892;2023-12-22T01:40:51;100159.20;;;9.46;87.07
62928;BME280;51070;52.236;-0.892;2023-12-22T01:43:16;100161.83;;;9.47;87.41
62928;BME280;51070;52.236;-0.892;2023-12-22T01:45:47;100161.34;;;9.48;88.04
62928;BME280;51070;52.236;-0.892;2023-12-22T01:48:13;100158.62;;;9.50;88.46
62928;BME280;51070;52.236;-0.892;2023-12-22T01:50:38;100168.98;;;9.51;89.21
62928;BME280;51070;52.236;-0.892;2023-12-22T01:53:04;100166.23;;;9.51;90.01
62928;BME280;51070;52.236;-0.892;2023-12-22T01:55:29;100172.83;;;9.52;90.99
62928;BME280;51070;52.236;-0.892;2023-12-22T01:57:55;100175.25;;;9.52;91.91
62928;BME280;51070;52.236;-0.892;2023-12-22T02:00:21;100179.02;;;9.52;93.83
62928;BME280;51070;52.236;-0.892;2023-12-22T02:02:47;100174.67;;;9.50;94.55
62928;BME280;51070;52.236;-0.892;2023-12-22T02:05:12;100171.70;;;9.49;95.76
62928;BME280;51070;52.236;-0.892;2023-12-22T02:07:38;100172.13;;;9.46;97.02
62928;BME280;51070;52.236;-0.892;2023-12-22T02:10:06;100167.38;;;9.42;97.63
62928;BME280;51070;52.236;-0.892;2023-12-22T02:12:32;100162.09;;;9.38;98.50
62928;BME280;51070;52.236;-0.892;2023-12-22T02:14:57;100165.98;;;9.36;99.75
62928;BME280;51070;52.236;-0.892;2023-12-22T02:19:57;100162.10;;;9.26;100.00
62928;BME280;51070;52.236;-0.892;2023-12-22T02:22:23;100166.75;;;9.20;100.00
62928;BME280;51070;52.236;-0.892;2023-12-22T02:24:48;100164.40;;;9.16;100.00
62928;BME280;51070;52.236;-0.892;2023-12-22T02:27:15;100155.84;;;9.13;100.00
62928;BME280;51070;52.236;-0.892;2023-12-22T02:29:52;100153.58;;;9.12;100.00
62928;BME280;51070;52.236;-0.892;2023-12-22T02:32:30;100136.99;;;9.10;100.00
62928;BME280;51070;52.236;-0.892;2023-12-22T02:34:56;100114.72;;;9.09;100.00
62928;BME280;51070;52.236;-0.892;2023-12-22T02:37:22;100120.56;;;9.09;100.00
62928;BME280;51070;52.236;-0.892;2023-12-22T02:39:49;100128.33;;;9.09;100.00
62928;BME280;51070;52.236;-0.892;2023-12-22T02:42:15;100131.95;;;9.10;100.00
62928;BME280;51070;52.236;-0.892;2023-12-22T02:44:41;100128.38;;;9.11;100.00
62928;BME280;51070;52.236;-0.892;2023-12-22T02:47:07;100118.10;;;9.13;100.00
62928;BME280;51070;52.236;-0.892;2023-12-22T02:49:32;100112.08;;;9.14;100.00
62928;BME280;51070;52.236;-0.892;2023-12-22T02:51:57;100102.61;;;9.14;100.00
62928;BME280;51070;52.236;-0.892;2023-12-22T02:54:23;100098.67;;;9.15;100.00
62928;BME280;51070;52.236;-0.892;2023-12-22T02:56:48;100102.82;;;9.15;100.00
62928;BME280;51070;52.236;-0.892;2023-12-22T02:59:13;100094.23;;;9.16;100.00
62928;BME280;51070;52.236;-0.892;2023-12-22T03:01:38;100093.40;;;9.18;100.00
62928;BME280;51070;52.236;-0.892;2023-12-22T03:04:04;100094.98;;;9.19;100.00
62928;BME280;51070;52.236;-0.892;2023-12-22T03:06:29;100090.67;;;9.19;100.00
62928;BME280;51070;52.236;-0.892;2023-12-22T03:08:54;100085.72;;;9.20;100.00
62928;BME280;51070;52.236;-0.892;2023-12-22T03:11:20;100077.98;;;9.21;100.00
62928;BME280;51070;52.236;-0.892;2023-12-22T03:13:45;100078.66;;;9.21;100.00
62928;BME280;51070;52.236;-0.892;2023-12-22T03:16:10;100071.05;;;9.19;100.00
62928;BME280;51070;52.236;-0.892;2023-12-22T03:18:37;100060.34;;;9.19;100.00
62928;BME280;51070;52.236;-0.892;2023-12-22T03:21:03;100064.83;;;9.19;100.00
62928;BME280;51070;52.236;-0.892;2023-12-22T03:23:28;100054.14;;;9.19;100.00
62928;BME280;51070;52.236;-0.892;2023-12-22T03:25:53;100051.58;;;9.20;100.00
62928;BME280;51070;52.236;-0.892;2023-12-22T03:28:18;100042.12;;;9.21;100.00
62928;BME280;51070;52.236;-0.892;2023-12-22T03:30:44;100042.00;;;9.23;100.00
62928;BME280;51070;52.236;-0.892;2023-12-22T03:33:09;100037.91;;;9.25;100.00
62928;BME280;51070;52.236;-0.892;2023-12-22T03:35:34;100036.80;;;9.28;100.00
62928;BME280;51070;52.236;-0.892;2023-12-22T03:37:59;100044.48;;;9.32;100.00
62928;BME280;51070;52.236;-0.892;2023-12-22T03:40:25;100034.77;;;9.36;100.00
62928;BME280;51070;52.236;-0.892;2023-12-22T03:42:51;100038.66;;;9.40;100.00
62928;BME280;51070;52.236;-0.892;2023-12-22T03:45:16;100041.67;;;9.43;100.00
62928;BME280;51070;52.236;-0.892;2023-12-22T03:47:41;100046.40;;;9.46;100.00
62928;BME280;51070;52.236;-0.892;2023-12-22T03:50:07;100046.31;;;9.48;100.00
62928;BME280;51070;52.236;-0.892;2023-12-22T03:52:33;100038.75;;;9.50;100.00
62928;BME280;51070;52.236;-0.892;2023-12-22T03:54:59;100043.44;;;9.52;100.00
62928;BME280;51070;52.236;-0.892;2023-12-22T03:57:24;100039.02;;;9.54;100.00
62928;BME280;51070;52.236;-0.892;2023-12-22T03:59:49;100036.47;;;9.55;100.00
62928;BME280;51070;52.236;-0.892;2023-12-22T04:02:15;100039.59;;;9.56;100.00
62928;BME280;51070;52.236;-0.892;2023-12-22T04:04:40;100034.42;;;9.57;100.00
62928;BME280;51070;52.236;-0.892;2023-12-22T04:07:06;100043.23;;;9.57;100.00
62928;BME280;51070;52.236;-0.892;2023-12-22T04:09:31;100038.42;;;9.58;100.00
62928;BME280;51070;52.236;-0.892;2023-12-22T04:11:56;100042.75;;;9.58;100.00
62928;BME280;51070;52.236;-0.892;2023-12-22T04:14:22;100037.06;;;9.58;100.00
62928;BME280;51070;52.236;-0.892;2023-12-22T04:16:47;100027.77;;;9.59;100.00
62928;BME280;51070;52.236;-0.892;2023-12-22T04:19:12;100023.98;;;9.60;100.00
62928;BME280;51070;52.236;-0.892;2023-12-22T04:21:38;100012.45;;;9.60;100.00
62928;BME280;51070;52.236;-0.892;2023-12-22T04:24:03;100014.86;;;9.61;100.00
62928;BME280;51070;52.236;-0.892;2023-12-22T04:26:29;100014.70;;;9.61;100.00
62928;BME280;51070;52.236;-0.892;2023-12-22T04:28:54;100013.16;;;9.62;100.00
62928;BME280;51070;52.236;-0.892;2023-12-22T04:31:20;100008.53;;;9.63;100.00
62928;BME280;51070;52.236;-0.892;2023-12-22T04:33:45;100012.54;;;9.64;100.00
62928;BME280;51070;52.236;-0.892;2023-12-22T04:36:10;100012.38;;;9.64;100.00
62928;BME280;51070;52.236;-0.892;2023-12-22T04:38:35;100011.16;;;9.64;100.00
62928;BME280;51070;52.236;-0.892;2023-12-22T04:41:01;100009.77;;;9.63;100.00
62928;BME280;51070;52.236;-0.892;2023-12-22T04:43:26;100001.13;;;9.63;100.00
62928;BME280;51070;52.236;-0.892;2023-12-22T04:45:51;99994.38;;;9.62;100.00
62928;BME280;51070;52.236;-0.892;2023-12-22T04:48:17;99999.02;;;9.62;100.00
62928;BME280;51070;52.236;-0.892;2023-12-22T04:50:42;100020.08;;;9.62;100.00
62928;BME280;51070;52.236;-0.892;2023-12-22T04:53:07;100010.77;;;9.63;100.00
62928;BME280;51070;52.236;-0.892;2023-12-22T04:55:32;100012.05;;;9.65;100.00
62928;BME280;51070;52.236;-0.892;2023-12-22T04:57:58;100022.09;;;9.67;100.00
62928;BME280;51070;52.236;-0.892;2023-12-22T05:00:23;100005.54;;;9.67;100.00
62928;BME280;51070;52.236;-0.892;2023-12-22T05:02:49;100005.55;;;9.68;100.00
62928;BME280;51070;52.236;-0.892;2023-12-22T05:05:14;100011.90;;;9.66;100.00
62928;BME280;51070;52.236;-0.892;2023-12-22T05:07:39;100018.61;;;9.65;100.00
62928;BME280;51070;52.236;-0.892;2023-12-22T05:10:05;100020.64;;;9.64;100.00
62928;BME280;51070;52.236;-0.892;2023-12-22T05:12:31;100019.04;;;9.62;100.00
62928;BME280;51070;52.236;-0.892;2023-12-22T05:14:56;100015.91;;;9.61;100.00
62928;BME280;51070;52.236;-0.892;2023-12-22T05:17:21;100017.67;;;9.63;100.00
62928;BME280;51070;52.236;-0.892;2023-12-22T05:19:47;100019.59;;;9.63;100.00
62928;BME280;51070;52.236;-0.892;2023-12-22T05:22:12;100024.81;;;9.65;100.00
62928;BME280;51070;52.236;-0.892;2023-12-22T05:24:37;100022.08;;;9.66;100.00
62928;BME280;51070;52.236;-0.892;2023-12-22T05:27:04;100029.16;;;9.67;100.00
62928;BME280;51070;52.236;-0.892;2023-12-22T05:29:29;100030.23;;;9.68;100.00
62928;BME280;51070;52.236;-0.892;2023-12-22T05:31:54;100030.08;;;9.69;100.00
62928;BME280;51070;52.236;-0.892;2023-12-22T05:34:20;100021.80;;;9.69;100.00
62928;BME280;51070;52.236;-0.892;2023-12-22T05:36:45;100024.19;;;9.68;100.00
62928;BME280;51070;52.236;-0.892;2023-12-22T05:39:10;100012.75;;;9.66;100.00
62928;BME280;51070;52.236;-0.892;2023-12-22T05:41:35;100013.03;;;9.63;100.00
62928;BME280;51070;52.236;-0.892;2023-12-22T05:44:04;100012.13;;;9.62;100.00
62928;BME280;51070;52.236;-0.892;2023-12-22T05:46:30;100014.86;;;9.60;100.00
62928;BME280;51070;52.236;-0.892;2023-12-22T05:48:55;100013.96;;;9.59;100.00
62928;BME280;51070;52.236;-0.892;2023-12-22T05:51:24;100014.98;;;9.58;100.00
62928;BME280;51070;52.236;-0.892;2023-12-22T05:53:50;100013.23;;;9.57;100.00
62928;BME280;51070;52.236;-0.892;2023-12-22T05:56:19;100009.05;;;9.56;100.00
62928;BME280;51070;52.236;-0.892;2023-12-22T05:58:45;99996.29;;;9.56;100.00
62928;BME280;51070;52.236;-0.892;2023-12-22T06:01:16;100001.63;;;9.55;100.00
62928;BME280;51070;52.236;-0.892;2023-12-22T06:03:43;100004.89;;;9.54;100.00
62928;BME280;51070;52.236;-0.892;2023-12-22T06:06:09;100012.84;;;9.55;100.00
62928;BME280;51070;52.236;-0.892;2023-12-22T06:08:34;100012.17;;;9.57;100.00
62928;BME280;51070;52.236;-0.892;2023-12-22T06:10:59;100009.60;;;9.57;100.00
62928;BME280;51070;52.236;-0.892;2023-12-22T06:13:24;100017.74;;;9.58;100.00
62928;BME280;51070;52.236;-0.892;2023-12-22T06:15:50;100010.31;;;9.58;100.00
62928;BME280;51070;52.236;-0.892;2023-12-22T06:18:15;100019.30;;;9.59;100.00
62928;BME280;51070;52.236;-0.892;2023-12-22T06:20:40;100022.91;;;9.58;100.00
62928;BME280;51070;52.236;-0.892;2023-12-22T06:23:05;100017.86;;;9.56;100.00
62928;BME280;51070;52.236;-0.892;2023-12-22T06:25:31;100009.39;;;9.55;100.00
62928;BME280;51070;52.236;-0.892;2023-12-22T06:27:56;100010.39;;;9.54;100.00
62928;BME280;51070;52.236;-0.892;2023-12-22T06:30:21;100010.17;;;9.52;100.00
62928;BME280;51070;52.236;-0.892;2023-12-22T06:32:47;100011.50;;;9.51;100.00
62928;BME280;51070;52.236;-0.892;2023-12-22T06:35:13;100014.06;;;9.49;100.00
62928;BME280;51070;52.236;-0.892;2023-12-22T06:37:38;100020.78;;;9.49;100.00
62928;BME280;51070;52.236;-0.892;2023-12-22T06:40:04;100021.98;;;9.49;100.00
62928;BME280;51070;52.236;-0.892;2023-12-22T06:42:29;100023.89;;;9.48;100.00
62928;BME280;51070;52.236;-0.892;2023-12-22T06:44:54;100025.44;;;9.49;100.00
62928;BME280;51070;52.236;-0.892;2023-12-22T06:47:20;100030.44;;;9.49;100.00
62928;BME280;51070;52.236;-0.892;2023-12-22T06:49:45;100043.90;;;9.49;100.00
62928;BME280;51070;52.236;-0.892;2023-12-22T06:52:10;100045.81;;;9.50;100.00
62928;BME280;51070;52.236;-0.892;2023-12-22T06:54:36;100052.40;;;9.51;100.00
62928;BME280;51070;52.236;-0.892;2023-12-22T06:57:01;100045.33;;;9.51;100.00
62928;BME280;51070;52.236;-0.892;2023-12-22T06:59:26;100050.20;;;9.53;100.00
62928;BME280;51070;52.236;-0.892;2023-12-22T07:01:52;100062.65;;;9.54;100.00
62928;BME280;51070;52.236;-0.892;2023-12-22T07:04:17;100062.52;;;9.56;100.00
62928;BME280;51070;52.236;-0.892;2023-12-22T07:06:42;100073.80;;;9.58;100.00
62928;BME280;51070;52.236;-0.892;2023-12-22T07:11:36;100091.20;;;9.64;100.00
62928;BME280;51070;52.236;-0.892;2023-12-22T07:14:02;100087.81;;;9.66;100.00
62928;BME280;51070;52.236;-0.892;2023-12-22T07:16:27;100091.15;;;9.68;100.00
62928;BME280;51070;52.236;-0.892;2023-12-22T07:18:53;100094.83;;;9.71;100.00
62928;BME280;51070;52.236;-0.892;2023-12-22T07:21:18;100101.29;;;9.74;100.00
62928;BME280;51070;52.236;-0.892;2023-12-22T07:23:43;100091.48;;;9.75;100.00
62928;BME280;51070;52.236;-0.892;2023-12-22T07:26:09;100095.80;;;9.75;100.00
62928;BME280;51070;52.236;-0.892;2023-12-22T07:28:34;100099.05;;;9.75;100.00
62928;BME280;51070;52.236;-0.892;2023-12-22T07:31:00;100103.36;;;9.74;100.00
62928;BME280;51070;52.236;-0.892;2023-12-22T07:33:25;100111.79;;;9.73;100.00
62928;BME280;51070;52.236;-0.892;2023-12-22T07:35:50;100118.48;;;9.72;100.00
62928;BME280;51070;52.236;-0.892;2023-12-22T07:38:15;100109.15;;;9.71;100.00
62928;BME280;51070;52.236;-0.892;2023-12-22T07:40:41;100109.79;;;9.68;100.00
62928;BME280;51070;52.236;-0.892;2023-12-22T07:43:06;100108.70;;;9.67;100.00
62928;BME280;51070;52.236;-0.892;2023-12-22T07:45:31;100108.69;;;9.67;100.00
62928;BME280;51070;52.236;-0.892;2023-12-22T07:47:57;100113.17;;;9.67;100.00
62928;BME280;51070;52.236;-0.892;2023-12-22T07:50:22;100114.38;;;9.65;100.00
62928;BME280;51070;52.236;-0.892;2023-12-22T07:52:47;100111.07;;;9.65;100.00
62928;BME280;51070;52.236;-0.892;2023-12-22T07:55:13;100120.50;;;9.63;100.00
62928;BME280;51070;52.236;-0.892;2023-12-22T07:57:38;100119.95;;;9.62;100.00
62928;BME280;51070;52.236;-0.892;2023-12-22T08:00:07;100120.44;;;9.61;100.00
62928;BME280;51070;52.236;-0.892;2023-12-22T08:02:34;100124.91;;;9.60;100.00
62928;BME280;51070;52.236;-0.892;2023-12-22T08:04:59;100122.11;;;9.58;100.00
62928;BME280;51070;52.236;-0.892;2023-12-22T08:07:25;100122.30;;;9.59;100.00
62928;BME280;51070;52.236;-0.892;2023-12-22T08:09:50;100122.27;;;9.58;100.00
62928;BME280;51070;52.236;-0.892;2023-12-22T08:12:15;100124.00;;;9.58;100.00
62928;BME280;51070;52.236;-0.892;2023-12-22T08:14:41;100123.61;;;9.57;100.00
62928;BME280;51070;52.236;-0.892;2023-12-22T08:17:06;100131.00;;;9.56;100.00
62928;BME280;51070;52.236;-0.892;2023-12-22T08:19:31;100134.29;;;9.56;100.00
62928;BME280;51070;52.236;-0.892;2023-12-22T08:21:56;100132.94;;;9.57;100.00
62928;BME280;51070;52.236;-0.892;2023-12-22T08:24:22;100132.15;;;9.59;100.00
62928;BME280;51070;52.236;-0.892;2023-12-22T08:26:47;100142.20;;;9.62;100.00
62928;BME280;51070;52.236;-0.892;2023-12-22T08:29:13;100149.70;;;9.64;100.00
62928;BME280;51070;52.236;-0.892;2023-12-22T08:31:38;100146.98;;;9.66;100.00
62928;BME280;51070;52.236;-0.892;2023-12-22T08:34:04;100157.21;;;9.68;100.00
62928;BME280;51070;52.236;-0.892;2023-12-22T08:36:30;100163.17;;;9.71;100.00
62928;BME280;51070;52.236;-0.892;2023-12-22T08:38:56;100159.95;;;9.74;100.00
62928;BME280;51070;52.236;-0.892;2023-12-22T08:41:21;100160.20;;;9.77;100.00
62928;BME280;51070;52.236;-0.892;2023-12-22T08:43:46;100164.25;;;9.80;100.00
62928;BME280;51070;52.236;-0.892;2023-12-22T08:46:12;100161.71;;;9.81;100.00
62928;BME280;51070;52.236;-0.892;2023-12-22T08:48:38;100161.73;;;9.83;100.00
62928;BME280;51070;52.236;-0.892;2023-12-22T08:51:03;100166.06;;;9.83;100.00
62928;BME280;51070;52.236;-0.892;2023-12-22T08:53:29;100166.30;;;9.85;100.00
62928;BME280;51070;52.236;-0.892;2023-12-22T08:55:59;100173.95;;;9.87;100.00
62928;BME280;51070;52.236;-0.892;2023-12-22T08:58:24;100175.35;;;9.88;100.00
62928;BME280;51070;52.236;-0.892;2023-12-22T09:00:50;100168.66;;;9.90;100.00
62928;BME280;51070;52.236;-0.892;2023-12-22T09:03:16;100169.41;;;9.92;100.00
62928;BME280;51070;52.236;-0.892;2023-12-22T09:05:41;100169.46;;;9.95;100.00
62928;BME280;51070;52.236;-0.892;2023-12-22T09:08:07;100172.19;;;9.99;100.00
62928;BME280;51070;52.236;-0.892;2023-12-22T09:10:32;100168.88;;;10.05;100.00
62928;BME280;51070;52.236;-0.892;2023-12-22T09:12:58;100170.55;;;10.10;100.00
62928;BME280;51070;52.236;-0.892;2023-12-22T09:15:23;100169.98;;;10.14;100.00
62928;BME280;51070;52.236;-0.892;2023-12-22T09:17:49;100176.27;;;10.17;100.00
62928;BME280;51070;52.236;-0.892;2023-12-22T09:20:16;100171.96;;;10.17;100.00
62928;BME280;51070;52.236;-0.892;2023-12-22T09:22:42;100180.61;;;10.17;100.00
62928;BME280;51070;52.236;-0.892;2023-12-22T09:25:07;100178.70;;;10.17;100.00
62928;BME280;51070;52.236;-0.892;2023-12-22T09:27:34;100184.77;;;10.18;100.00
62928;BME280;51070;52.236;-0.892;2023-12-22T09:29:59;100190.36;;;10.20;100.00
62928;BME280;51070;52.236;-0.892;2023-12-22T09:32:24;100190.23;;;10.22;100.00
62928;BME280;51070;52.236;-0.892;2023-12-22T09:34:50;100189.90;;;10.23;100.00
62928;BME280;51070;52.236;-0.892;2023-12-22T09:37:15;100192.90;;;10.25;100.00
62928;BME280;51070;52.236;-0.892;2023-12-22T09:39:40;100191.07;;;10.28;100.00
62928;BME280;51070;52.236;-0.892;2023-12-22T09:42:05;100194.05;;;10.30;100.00
62928;BME280;51070;52.236;-0.892;2023-12-22T09:44:31;100202.21;;;10.32;100.00
62928;BME280;51070;52.236;-0.892;2023-12-22T09:46:58;100201.35;;;10.32;100.00
62928;BME280;51070;52.236;-0.892;2023-12-22T09:49:24;100210.02;;;10.33;100.00
62928;BME280;51070;52.236;-0.892;2023-12-22T09:51:50;100217.73;;;10.37;100.00
62928;BME280;51070;52.236;-0.892;2023-12-22T09:54:15;100225.10;;;10.42;100.00
62928;BME280;51070;52.236;-0.892;2023-12-22T09:56:41;100222.26;;;10.45;100.00
62928;BME280;51070;52.236;-0.892;2023-12-22T09:59:11;100211.98;;;10.49;100.00
62928;BME280;51070;52.236;-0.892;2023-12-22T10:01:39;100212.77;;;10.54;100.00
62928;BME280;51070;52.236;-0.892;2023-12-22T10:04:05;100211.63;;;10.57;100.00
62928;BME280;51070;52.236;-0.892;2023-12-22T10:06:30;100210.12;;;10.59;100.00
62928;BME280;51070;52.236;-0.892;2023-12-22T10:08:56;100216.52;;;10.59;100.00
62928;BME280;51070;52.236;-0.892;2023-12-22T10:11:21;100219.61;;;10.58;100.00
62928;BME280;51070;52.236;-0.892;2023-12-22T10:13:48;100220.27;;;10.56;100.00
62928;BME280;51070;52.236;-0.892;2023-12-22T10:16:16;100221.75;;;10.53;100.00
62928;BME280;51070;52.236;-0.892;2023-12-22T10:18:41;100217.23;;;10.52;100.00
62928;BME280;51070;52.236;-0.892;2023-12-22T10:21:07;100213.27;;;10.53;100.00
62928;BME280;51070;52.236;-0.892;2023-12-22T10:23:32;100215.40;;;10.55;100.00
62928;BME280;51070;52.236;-0.892;2023-12-22T10:25:57;100217.36;;;10.57;100.00
62928;BME280;51070;52.236;-0.892;2023-12-22T10:28:23;100209.81;;;10.60;100.00
62928;BME280;51070;52.236;-0.892;2023-12-22T10:30:51;100200.91;;;10.63;100.00
62928;BME280;51070;52.236;-0.892;2023-12-22T10:33:17;100205.16;;;10.67;100.00
62928;BME280;51070;52.236;-0.892;2023-12-22T10:35:43;100202.79;;;10.70;100.00
62928;BME280;51070;52.236;-0.892;2023-12-22T10:38:08;100209.05;;;10.72;100.00
62928;BME280;51070;52.236;-0.892;2023-12-22T10:40:33;100216.20;;;10.74;100.00
62928;BME280;51070;52.236;-0.892;2023-12-22T10:43:01;100219.18;;;10.76;100.00
62928;BME280;51070;52.236;-0.892;2023-12-22T10:45:27;100224.54;;;10.76;100.00
62928;BME280;51070;52.236;-0.892;2023-12-22T10:47:54;100233.14;;;10.74;100.00
62928;BME280;51070;52.236;-0.892;2023-12-22T10:50:19;100234.35;;;10.74;100.00
62928;BME280;51070;52.236;-0.892;2023-12-22T10:52:49;100240.71;;;10.73;100.00
62928;BME280;51070;52.236;-0.892;2023-12-22T10:55:15;100238.45;;;10.72;100.00
62928;BME280;51070;52.236;-0.892;2023-12-22T10:57:40;100231.51;;;10.71;100.00
62928;BME280;51070;52.236;-0.892;2023-12-22T11:00:06;100236.66;;;10.70;100.00
62928;BME280;51070;52.236;-0.892;2023-12-22T11:02:35;100241.64;;;10.68;100.00
62928;BME280;51070;52.236;-0.892;2023-12-22T11:05:02;100240.40;;;10.67;100.00
62928;BME280;51070;52.236;-0.892;2023-12-22T11:07:28;100238.27;;;10.65;100.00
62928;BME280;51070;52.236;-0.892;2023-12-22T11:09:53;100244.61;;;10.62;100.00
62928;BME280;51070;52.236;-0.892;2023-12-22T11:12:21;100244.43;;;10.62;100.00
62928;BME280;51070;52.236;-0.892;2023-12-22T11:14:46;100242.73;;;10.63;100.00
62928;BME280;51070;52.236;-0.892;2023-12-22T11:17:20;100243.14;;;10.66;100.00
62928;BME280;51070;52.236;-0.892;2023-12-22T11:19:47;100244.58;;;10.68;100.00
62928;BME280;51070;52.236;-0.892;2023-12-22T11:22:14;100239.42;;;10.70;100.00
62928;BME280;51070;52.236;-0.892;2023-12-22T11:24:41;100240.55;;;10.73;100.00
62928;BME280;51070;52.236;-0.892;2023-12-22T11:27:07;100243.89;;;10.76;100.00
62928;BME280;51070;52.236;-0.892;2023-12-22T11:29:34;100239.11;;;10.78;100.00
62928;BME280;51070;52.236;-0.892;2023-12-22T11:32:00;100236.79;;;10.82;100.00
62928;BME280;51070;52.236;-0.892;2023-12-22T11:34:29;100241.32;;;10.83;100.00
62928;BME280;51070;52.236;-0.892;2023-12-22T11:36:56;100237.75;;;10.86;100.00
62928;BME280;51070;52.236;-0.892;2023-12-22T11:39:22;100239.39;;;10.89;100.00
62928;BME280;51070;52.236;-0.892;2023-12-22T11:41:47;100243.10;;;10.93;100.00
62928;BME280;51070;52.236;-0.892;2023-12-22T11:44:14;100245.44;;;10.98;99.96
62928;BME280;51070;52.236;-0.892;2023-12-22T11:46:39;100247.61;;;11.02;99.94
62928;BME280;51070;52.236;-0.892;2023-12-22T11:49:04;100238.29;;;11.02;99.67
62928;BME280;51070;52.236;-0.892;2023-12-22T11:51:33;100236.04;;;11.03;99.39
62928;BME280;51070;52.236;-0.892;2023-12-22T11:54:01;100245.23;;;11.04;99.38
62928;BME280;51070;52.236;-0.892;2023-12-22T11:56:26;100239.20;;;11.04;99.12
62928;BME280;51070;52.236;-0.892;2023-12-22T11:58:53;100230.27;;;11.06;98.46
62928;BME280;51070;52.236;-0.892;2023-12-22T12:01:21;100223.00;;;11.06;98.48
62928;BME280;51070;52.236;-0.892;2023-12-22T12:03:51;100221.88;;;11.10;98.32
62928;BME280;51070;52.236;-0.892;2023-12-22T12:06:22;100229.21;;;11.14;97.21
62928;BME280;51070;52.236;-0.892;2023-12-22T12:08:48;100232.42;;;11.18;97.23
62928;BME280;51070;52.236;-0.892;2023-12-22T12:11:16;100244.54;;;11.19;96.93
62928;BME280;51070;52.236;-0.892;2023-12-22T12:13:43;100239.15;;;11.17;97.22
62928;BME280;51070;52.236;-0.892;2023-12-22T12:16:12;100240.85;;;11.16;96.97
62928;BME280;51070;52.236;-0.892;2023-12-22T12:18:38;100241.45;;;11.12;97.00
62928;BME280;51070;52.236;-0.892;2023-12-22T12:21:05;100244.96;;;11.07;97.26
62928;BME280;51070;52.236;-0.892;2023-12-22T12:23:31;100239.23;;;11.05;96.69
62928;BME280;51070;52.236;-0.892;2023-12-22T12:25:57;100235.70;;;11.03;96.97
62928;BME280;51070;52.236;-0.892;2023-12-22T12:28:25;100237.56;;;11.01;96.79
62928;BME280;51070;52.236;-0.892;2023-12-22T12:31:25;100236.02;;;11.01;96.72
62928;BME280;51070;52.236;-0.892;2023-12-22T12:33:44;100239.09;;;10.99;96.45
62928;BME280;51070;52.236;-0.892;2023-12-22T12:36:11;100230.77;;;10.99;96.80
62928;BME280;51070;52.236;-0.892;2023-12-22T12:41:03;100236.88;;;11.00;96.49